createdAt,value
2022-11-15T01:00:04.294Z,10
2022-11-15T01:06:30.058Z,9
2022-11-15T01:07:07.111Z,12
2022-11-15T01:48:05.294Z,10
2022-11-15T02:50:03.617Z,8
2022-11-15T02:57:03.609Z,8
2022-11-15T03:09:03.786Z,11
2022-11-15T03:17:03.622Z,11
2022-11-15T03:32:03.632Z,11
2022-11-15T03:46:03.720Z,11
2022-11-15T04:29:03.617Z,9
2022-11-15T04:30:03.664Z,10
2022-11-15T04:34:03.613Z,7
2022-11-15T04:37:03.641Z,8
2022-11-15T04:44:03.647Z,7
2022-11-15T04:45:03.607Z,7
2022-11-15T04:46:04.262Z,8
2022-11-15T04:51:03.648Z,8
2022-11-15T04:52:03.606Z,7
2022-11-15T04:58:03.639Z,6
2022-11-15T05:01:03.708Z,7
2022-11-15T05:05:03.607Z,6
2022-11-15T05:06:03.605Z,8
2022-11-15T05:07:03.643Z,7
2022-11-15T05:09:03.612Z,8
2022-11-15T05:10:03.614Z,6
2022-11-15T05:12:03.607Z,6
2022-11-15T05:13:03.608Z,8
2022-11-15T05:14:03.614Z,6
2022-11-15T05:15:03.611Z,7
2022-11-15T05:16:03.611Z,6
2022-11-15T05:17:03.613Z,7
2022-11-15T05:18:03.612Z,7
2022-11-15T05:19:03.752Z,6
2022-11-15T05:20:03.610Z,8
2022-11-15T05:21:03.614Z,7
2022-11-15T05:22:03.613Z,7
2022-11-15T05:23:03.616Z,7
2022-11-15T05:24:03.683Z,6
2022-11-15T05:25:03.607Z,7
2022-11-15T05:26:08.816Z,5
2022-11-15T05:28:03.616Z,7
2022-11-15T05:29:03.621Z,7
2022-11-15T05:30:03.614Z,7
2022-11-15T05:31:03.613Z,7
2022-11-15T05:32:03.643Z,9
2022-11-15T05:33:03.648Z,7
2022-11-15T05:34:03.613Z,7
2022-11-15T05:35:03.622Z,10
2022-11-15T05:36:03.623Z,9
2022-11-15T05:37:03.624Z,7
2022-11-15T05:38:03.614Z,7
2022-11-15T05:39:03.619Z,7
2022-11-15T05:40:03.617Z,6
2022-11-15T05:41:03.622Z,8
2022-11-15T05:42:03.616Z,8
2022-11-15T05:43:03.614Z,8
2022-11-15T05:44:03.622Z,8
2022-11-15T05:45:03.621Z,9
2022-11-15T05:46:03.622Z,7
2022-11-15T05:47:03.624Z,8
2022-11-15T05:48:03.627Z,9
2022-11-15T05:49:03.620Z,9
2022-11-15T05:50:03.615Z,8
2022-11-15T05:51:03.636Z,9
2022-11-15T05:52:03.621Z,11
2022-11-15T05:53:05.325Z,9
2022-11-15T05:54:03.622Z,9
2022-11-15T05:55:03.626Z,10
2022-11-15T05:56:03.633Z,8
2022-11-15T05:57:03.621Z,9
2022-11-15T05:58:03.640Z,12
2022-11-15T05:59:03.674Z,11
2022-11-15T06:00:03.633Z,11
2022-11-15T06:01:03.622Z,8
2022-11-15T06:02:03.735Z,8
2022-11-15T06:03:03.652Z,8
2022-11-15T06:04:03.626Z,10
2022-11-15T06:05:03.625Z,8
2022-11-15T06:06:03.628Z,8
2022-11-15T06:07:03.653Z,7
2022-11-15T06:08:03.683Z,9
2022-11-15T06:09:03.628Z,8
2022-11-15T06:10:03.638Z,7
2022-11-15T06:11:03.624Z,8
2022-11-15T06:12:03.626Z,9
2022-11-15T06:13:03.638Z,7
2022-11-15T06:14:03.637Z,9
2022-11-15T06:15:03.671Z,8
2022-11-15T06:16:03.634Z,11
2022-11-15T06:17:08.601Z,9
2022-11-15T06:18:03.636Z,9
2022-11-15T06:19:03.628Z,10
2022-11-15T06:20:03.630Z,13
2022-11-15T06:21:03.629Z,10
2022-11-15T06:22:03.679Z,10
2022-11-15T06:23:03.627Z,8
2022-11-15T06:24:03.643Z,9
2022-11-15T06:25:05.565Z,8
2022-11-15T06:26:03.645Z,11
2022-11-15T06:27:25.452Z,12
2022-11-15T06:28:03.649Z,8
2022-11-15T06:29:03.640Z,10
2022-11-15T06:30:03.635Z,11
2022-11-15T06:31:03.700Z,10
2022-11-15T06:32:03.638Z,10
2022-11-15T06:33:03.650Z,11
2022-11-15T06:34:03.663Z,8
2022-11-15T06:35:03.653Z,11
2022-11-15T06:36:03.666Z,11
2022-11-15T06:37:03.645Z,9
2022-11-15T06:38:03.674Z,9
2022-11-15T06:39:03.642Z,9
2022-11-15T06:40:03.644Z,10
2022-11-15T06:41:03.637Z,9
2022-11-15T06:42:03.644Z,8
2022-11-15T06:43:03.639Z,9
2022-11-15T06:44:03.653Z,8
2022-11-15T06:45:03.667Z,11
2022-11-15T06:46:03.734Z,7
2022-11-15T06:47:03.649Z,7
2022-11-15T06:48:03.643Z,8
2022-11-15T06:49:09.272Z,11
2022-11-15T06:50:03.672Z,7
2022-11-15T06:51:03.647Z,6
2022-11-15T06:52:03.674Z,8
2022-11-15T06:53:03.646Z,9
2022-11-15T06:54:03.648Z,8
2022-11-15T06:55:03.652Z,8
2022-11-15T06:56:03.653Z,7
2022-11-15T06:57:03.645Z,6
2022-11-15T06:58:03.642Z,8
2022-11-15T06:59:03.653Z,9
2022-11-15T07:00:03.667Z,6
2022-11-15T07:01:03.713Z,6
2022-11-15T07:02:03.642Z,10
2022-11-15T07:03:03.649Z,6
2022-11-15T07:04:03.654Z,7
2022-11-15T07:05:03.676Z,7
2022-11-15T07:06:07.419Z,7
2022-11-15T07:07:03.751Z,8
2022-11-15T07:08:03.651Z,8
2022-11-15T07:09:03.662Z,8
2022-11-15T07:10:03.655Z,8
2022-11-15T07:11:03.659Z,7
2022-11-15T07:12:07.669Z,9
2022-11-15T07:13:03.657Z,7
2022-11-15T07:14:03.651Z,10
2022-11-15T07:15:03.666Z,8
2022-11-15T07:16:03.664Z,6
2022-11-15T07:17:03.652Z,5
2022-11-15T07:18:03.715Z,8
2022-11-15T07:19:03.666Z,9
2022-11-15T07:20:03.651Z,6
2022-11-15T07:21:03.651Z,8
2022-11-15T07:22:03.670Z,9
2022-11-15T07:23:03.654Z,7
2022-11-15T07:24:03.654Z,9
2022-11-15T07:25:03.715Z,8
2022-11-15T07:26:03.678Z,11
2022-11-15T07:28:03.663Z,8
2022-11-15T07:29:03.660Z,7
2022-11-15T07:30:03.658Z,7
2022-11-15T07:31:03.663Z,8
2022-11-15T07:32:03.661Z,6
2022-11-15T07:33:03.654Z,6
2022-11-15T07:34:03.664Z,7
2022-11-15T07:35:03.731Z,8
2022-11-15T07:36:03.695Z,6
2022-11-15T07:37:03.657Z,6
2022-11-15T07:38:03.696Z,7
2022-11-15T07:40:03.667Z,5
2022-11-15T07:41:03.668Z,7
2022-11-15T07:42:03.663Z,9
2022-11-15T07:43:03.670Z,6
2022-11-15T07:44:03.670Z,8
2022-11-15T07:46:03.659Z,6
2022-11-15T07:47:03.668Z,7
2022-11-15T07:48:03.669Z,6
2022-11-15T07:49:03.668Z,7
2022-11-15T07:50:03.703Z,5
2022-11-15T07:51:03.663Z,6
2022-11-15T07:52:03.687Z,6
2022-11-15T07:53:03.667Z,6
2022-11-15T07:54:03.671Z,5
2022-11-15T07:55:03.661Z,7
2022-11-15T07:56:03.666Z,5
2022-11-15T07:57:07.260Z,6
2022-11-15T07:58:03.675Z,6
2022-11-15T07:59:03.664Z,9
2022-11-15T08:00:03.672Z,6
2022-11-15T08:01:03.907Z,6
2022-11-15T08:02:03.818Z,5
2022-11-15T08:03:03.674Z,5
2022-11-15T08:04:03.678Z,4
2022-11-15T08:05:03.750Z,5
2022-11-15T08:06:03.690Z,5
2022-11-15T08:07:03.769Z,7
2022-11-15T08:08:03.672Z,6
2022-11-15T08:09:03.672Z,6
2022-11-15T08:10:03.714Z,5
2022-11-15T08:11:03.683Z,5
2022-11-15T08:12:03.677Z,5
2022-11-15T08:13:04.015Z,6
2022-11-15T08:14:03.679Z,5
2022-11-15T08:15:03.736Z,6
2022-11-15T08:16:03.676Z,9
2022-11-15T08:18:03.686Z,6
2022-11-15T08:19:03.704Z,5
2022-11-15T08:20:03.689Z,6
2022-11-15T08:21:03.729Z,4
2022-11-15T08:22:03.681Z,5
2022-11-15T08:23:04.827Z,7
2022-11-15T08:24:03.682Z,5
2022-11-15T08:25:03.693Z,5
2022-11-15T08:26:03.674Z,5
2022-11-15T08:27:03.756Z,5
2022-11-15T08:28:03.691Z,4
2022-11-15T08:29:03.678Z,6
2022-11-15T08:30:03.685Z,5
2022-11-15T08:31:03.715Z,4
2022-11-15T08:32:03.696Z,3
2022-11-15T08:33:03.694Z,2
2022-11-15T08:34:03.683Z,4
2022-11-15T08:35:03.678Z,3
2022-11-15T08:36:03.678Z,3
2022-11-15T08:37:03.683Z,3
2022-11-15T08:38:03.732Z,4
2022-11-15T08:39:03.683Z,4
2022-11-15T08:40:03.682Z,4
2022-11-15T08:41:03.688Z,3
2022-11-15T08:42:03.685Z,3
2022-11-15T08:43:03.739Z,3
2022-11-15T08:44:03.679Z,4
2022-11-15T08:45:03.689Z,3
2022-11-15T08:46:03.692Z,5
2022-11-15T08:47:03.726Z,3
2022-11-15T08:48:03.687Z,4
2022-11-15T08:49:03.694Z,3
2022-11-15T08:50:03.689Z,4
2022-11-15T08:51:03.687Z,3
2022-11-15T08:52:03.692Z,3
2022-11-15T08:53:03.694Z,3
2022-11-15T08:54:03.697Z,3
2022-11-15T08:55:03.693Z,4
2022-11-15T08:56:03.694Z,3
2022-11-15T08:57:03.747Z,6
2022-11-15T08:58:03.691Z,4
2022-11-15T08:59:03.694Z,3
2022-11-15T09:00:03.691Z,6
2022-11-15T09:01:03.777Z,3
2022-11-15T09:02:03.772Z,3
2022-11-15T09:03:03.696Z,6
2022-11-15T09:04:03.698Z,4
2022-11-15T09:05:03.693Z,3
2022-11-15T09:06:03.707Z,4
2022-11-15T09:07:03.764Z,5
2022-11-15T09:08:18.778Z,5
2022-11-15T09:09:03.729Z,5
2022-11-15T09:10:03.698Z,5
2022-11-15T09:11:03.696Z,4
2022-11-15T09:12:03.855Z,3
2022-11-15T09:13:03.716Z,4
2022-11-15T09:14:03.697Z,4
2022-11-15T09:15:03.700Z,3
2022-11-15T09:16:03.704Z,5
2022-11-15T09:17:03.702Z,5
2022-11-15T09:18:03.709Z,5
2022-11-15T09:19:07.607Z,5
2022-11-15T09:20:03.707Z,4
2022-11-15T09:21:03.711Z,5
2022-11-15T09:22:03.705Z,6
2022-11-15T09:23:03.698Z,5
2022-11-15T09:24:03.726Z,4
2022-11-15T09:25:05.311Z,4
2022-11-15T09:26:03.912Z,4
2022-11-15T09:27:03.714Z,5
2022-11-15T09:28:03.752Z,4
2022-11-15T09:29:03.739Z,5
2022-11-15T09:32:03.735Z,4
2022-11-15T09:34:31.938Z,5
2022-11-15T09:36:04.551Z,5
2022-11-15T09:41:03.762Z,5
2022-11-15T09:42:03.727Z,4
2022-11-15T09:44:03.738Z,4
2022-11-15T09:48:03.730Z,4
2022-11-15T09:49:57.801Z,4
2022-11-15T09:54:23.623Z,5
2022-11-15T09:55:28.320Z,6
2022-11-15T09:56:23.914Z,3
2022-11-15T10:00:54.586Z,10
2022-11-15T10:01:03.845Z,7
2022-11-15T10:02:54.972Z,6
2022-11-15T10:05:43.945Z,4
2022-11-15T10:06:39.324Z,4
2022-11-15T10:07:34.981Z,7
2022-11-15T10:08:30.990Z,6
2022-11-15T10:09:07.524Z,6
2022-11-15T10:10:03.732Z,9
2022-11-15T10:12:03.743Z,6
2022-11-15T10:13:03.733Z,7
2022-11-15T10:14:03.740Z,5
2022-11-15T10:15:03.786Z,8
2022-11-15T10:16:03.740Z,5
2022-11-15T10:17:04.011Z,5
2022-11-15T10:18:03.730Z,4
2022-11-15T10:19:03.721Z,5
2022-11-15T10:20:06.012Z,7
2022-11-15T10:21:03.728Z,4
2022-11-15T10:22:03.774Z,9
2022-11-15T10:23:03.736Z,7
2022-11-15T10:24:03.732Z,9
2022-11-15T10:25:03.722Z,7
2022-11-15T10:26:06.796Z,4
2022-11-15T10:27:03.729Z,5
2022-11-15T10:28:03.729Z,4
2022-11-15T10:29:03.764Z,4
2022-11-15T10:30:03.743Z,7
2022-11-15T10:31:03.731Z,8
2022-11-15T10:32:03.740Z,5
2022-11-15T10:33:03.839Z,6
2022-11-15T10:34:03.735Z,4
2022-11-15T10:35:03.740Z,4
2022-11-15T10:36:03.747Z,5
2022-11-15T10:37:03.738Z,7
2022-11-15T10:39:03.737Z,8
2022-11-15T10:40:03.734Z,5
2022-11-15T10:41:03.742Z,7
2022-11-15T10:42:08.740Z,7
2022-11-15T10:43:03.758Z,9
2022-11-15T10:44:03.758Z,7
2022-11-15T10:45:03.738Z,7
2022-11-15T10:46:24.694Z,6
2022-11-15T10:47:03.746Z,8
2022-11-15T10:48:03.733Z,4
2022-11-15T10:49:03.735Z,5
2022-11-15T10:50:03.737Z,5
2022-11-15T10:51:03.738Z,6
2022-11-15T10:52:03.747Z,5
2022-11-15T10:53:03.774Z,5
2022-11-15T10:54:07.776Z,3
2022-11-15T10:55:03.737Z,6
2022-11-15T10:56:03.740Z,5
2022-11-15T10:57:03.736Z,6
2022-11-15T10:58:03.743Z,5
2022-11-15T10:59:03.764Z,4
2022-11-15T11:00:03.745Z,4
2022-11-15T11:01:03.826Z,4
2022-11-15T11:02:03.741Z,6
2022-11-15T11:03:03.740Z,3
2022-11-15T11:04:03.742Z,3
2022-11-15T11:05:03.758Z,5
2022-11-15T11:06:03.748Z,5
2022-11-15T11:07:03.802Z,4
2022-11-15T11:08:03.750Z,7
2022-11-15T11:09:03.747Z,3
2022-11-15T11:10:09.787Z,7
2022-11-15T11:11:04.098Z,5
2022-11-15T11:12:03.750Z,6
2022-11-15T11:13:03.754Z,7
2022-11-15T11:14:03.771Z,6
2022-11-15T11:15:03.763Z,7
2022-11-15T11:16:03.756Z,3
2022-11-15T11:17:03.754Z,3
2022-11-15T11:18:03.812Z,4
2022-11-15T11:19:03.753Z,5
2022-11-15T11:20:03.750Z,4
2022-11-15T11:21:03.747Z,8
2022-11-15T11:22:03.740Z,4
2022-11-15T11:23:03.755Z,4
2022-11-15T11:24:03.757Z,5
2022-11-15T11:25:03.791Z,4
2022-11-15T11:26:03.763Z,3
2022-11-15T11:27:03.772Z,5
2022-11-15T11:28:03.758Z,5
2022-11-15T11:29:03.761Z,3
2022-11-15T11:30:03.749Z,3
2022-11-15T11:31:03.757Z,8
2022-11-15T11:32:03.850Z,5
2022-11-15T11:33:03.765Z,8
2022-11-15T11:34:03.763Z,4
2022-11-15T11:35:03.758Z,7
2022-11-15T11:36:03.761Z,3
2022-11-15T11:37:03.765Z,4
2022-11-15T11:39:03.759Z,4
2022-11-15T11:40:09.090Z,4
2022-11-15T11:41:03.762Z,4
2022-11-15T11:42:03.772Z,4
2022-11-15T11:43:03.760Z,6
2022-11-15T11:44:03.764Z,3
2022-11-15T11:45:03.809Z,5
2022-11-15T11:46:03.770Z,6
2022-11-15T11:47:03.881Z,2
2022-11-15T11:48:03.790Z,6
2022-11-15T11:49:03.777Z,4
2022-11-15T11:50:03.763Z,5
2022-11-15T11:51:03.761Z,4
2022-11-15T11:52:03.781Z,6
2022-11-15T11:53:04.497Z,6
2022-11-15T11:54:03.763Z,3
2022-11-15T11:55:03.811Z,6
2022-11-15T11:56:03.764Z,4
2022-11-15T11:57:03.787Z,6
2022-11-15T11:58:03.767Z,7
2022-11-15T11:59:03.771Z,5
2022-11-15T12:00:03.772Z,3
2022-11-15T12:01:08.574Z,3
2022-11-15T12:02:03.949Z,4
2022-11-15T12:03:03.946Z,5
2022-11-15T12:04:03.766Z,5
2022-11-15T12:05:03.767Z,5
2022-11-15T12:06:03.770Z,4
2022-11-15T12:07:03.850Z,4
2022-11-15T12:08:04.420Z,5
2022-11-15T12:09:03.818Z,5
2022-11-15T12:10:03.770Z,5
2022-11-15T12:11:03.779Z,5
2022-11-15T12:12:03.767Z,4
2022-11-15T12:13:03.778Z,3
2022-11-15T12:14:03.772Z,3
2022-11-15T12:15:03.769Z,3
2022-11-15T12:16:09.052Z,3
2022-11-15T12:17:03.765Z,2
2022-11-15T12:18:03.804Z,4
2022-11-15T12:19:03.772Z,6
2022-11-15T12:20:03.779Z,4
2022-11-15T12:21:03.777Z,3
2022-11-15T12:22:03.799Z,3
2022-11-15T12:23:03.818Z,4
2022-11-15T12:24:03.770Z,5
2022-11-15T12:25:03.775Z,4
2022-11-15T12:26:03.771Z,3
2022-11-15T12:27:03.776Z,4
2022-11-15T12:28:03.783Z,3
2022-11-15T12:29:07.512Z,3
2022-11-15T12:30:03.813Z,4
2022-11-15T12:31:03.851Z,3
2022-11-15T12:32:03.780Z,2
2022-11-15T12:33:03.780Z,3
2022-11-15T12:34:07.356Z,2
2022-11-15T12:35:03.779Z,3
2022-11-15T12:36:03.787Z,3
2022-11-15T12:37:03.805Z,4
2022-11-15T12:38:28.464Z,6
2022-11-15T12:39:05.519Z,4
2022-11-15T12:40:04.470Z,4
2022-11-15T12:41:03.780Z,2
2022-11-15T12:42:03.784Z,5
2022-11-15T12:43:03.788Z,4
2022-11-15T12:44:03.787Z,5
2022-11-15T12:45:03.789Z,4
2022-11-15T12:46:03.784Z,3
2022-11-15T12:47:03.815Z,2
2022-11-15T12:48:03.783Z,5
2022-11-15T12:49:03.791Z,5
2022-11-15T12:50:03.786Z,4
2022-11-15T12:51:03.783Z,4
2022-11-15T12:52:03.788Z,3
2022-11-15T12:53:03.865Z,4
2022-11-15T12:54:03.779Z,5
2022-11-15T12:55:03.785Z,4
2022-11-15T12:56:03.787Z,4
2022-11-15T12:57:03.789Z,5
2022-11-15T12:58:03.792Z,5
2022-11-15T12:59:03.796Z,3
2022-11-15T13:00:03.846Z,5
2022-11-15T13:01:03.858Z,4
2022-11-15T13:02:03.793Z,4
2022-11-15T13:03:03.787Z,5
2022-11-15T13:04:03.793Z,6
2022-11-15T13:05:03.789Z,7
2022-11-15T13:06:03.799Z,3
2022-11-15T13:07:03.986Z,4
2022-11-15T13:08:03.791Z,5
2022-11-15T13:09:03.792Z,5
2022-11-15T13:10:03.796Z,4
2022-11-15T13:11:03.809Z,3
2022-11-15T13:12:03.794Z,5
2022-11-15T13:13:03.795Z,5
2022-11-15T13:14:03.795Z,5
2022-11-15T13:15:03.795Z,5
2022-11-15T13:16:03.803Z,4
2022-11-15T13:17:03.793Z,6
2022-11-15T13:18:03.834Z,5
2022-11-15T13:19:03.798Z,5
2022-11-15T13:20:03.803Z,4
2022-11-15T13:21:03.812Z,4
2022-11-15T13:22:03.802Z,8
2022-11-15T13:23:03.842Z,4
2022-11-15T13:24:03.798Z,5
2022-11-15T13:25:03.796Z,2
2022-11-15T13:26:03.799Z,3
2022-11-15T13:27:03.798Z,4
2022-11-15T13:28:07.931Z,6
2022-11-15T13:29:03.812Z,2
2022-11-15T13:30:03.869Z,3
2022-11-15T13:31:03.801Z,5
2022-11-15T13:32:03.806Z,8
2022-11-15T13:33:03.865Z,5
2022-11-15T13:34:10.065Z,6
2022-11-15T13:35:03.854Z,6
2022-11-15T13:36:03.809Z,3
2022-11-15T13:37:03.805Z,3
2022-11-15T13:39:03.805Z,3
2022-11-15T13:40:03.812Z,6
2022-11-15T13:41:03.811Z,5
2022-11-15T13:42:03.827Z,6
2022-11-15T13:43:03.816Z,3
2022-11-15T13:44:03.805Z,5
2022-11-15T13:45:03.836Z,5
2022-11-15T13:46:03.809Z,5
2022-11-15T13:47:04.796Z,4
2022-11-15T13:48:03.811Z,4
2022-11-15T13:49:03.855Z,5
2022-11-15T13:50:06.078Z,5
2022-11-15T13:51:03.823Z,3
2022-11-15T13:52:03.813Z,4
2022-11-15T13:53:03.811Z,4
2022-11-15T13:54:03.807Z,3
2022-11-15T13:55:03.887Z,3
2022-11-15T13:56:03.858Z,3
2022-11-15T13:57:03.812Z,4
2022-11-15T13:58:03.809Z,4
2022-11-15T13:59:03.818Z,5
2022-11-15T14:00:03.813Z,3
2022-11-15T14:01:03.848Z,5
2022-11-15T14:02:03.855Z,3
2022-11-15T14:03:03.816Z,3
2022-11-15T14:04:03.814Z,5
2022-11-15T14:05:03.812Z,5
2022-11-15T14:06:03.819Z,5
2022-11-15T14:07:03.892Z,3
2022-11-15T14:08:03.818Z,4
2022-11-15T14:09:03.929Z,4
2022-11-15T14:10:03.886Z,4
2022-11-15T14:11:03.819Z,5
2022-11-15T14:12:03.819Z,3
2022-11-15T14:13:03.818Z,4
2022-11-15T14:14:03.822Z,2
2022-11-15T14:15:03.822Z,3
2022-11-15T14:16:03.825Z,2
2022-11-15T14:17:03.816Z,4
2022-11-15T14:18:03.819Z,3
2022-11-15T14:19:03.816Z,3
2022-11-15T14:20:03.845Z,3
2022-11-15T14:21:03.827Z,4
2022-11-15T14:22:03.832Z,4
2022-11-15T14:23:03.821Z,5
2022-11-15T14:24:03.886Z,4
2022-11-15T14:25:03.824Z,7
2022-11-15T14:26:10.274Z,5
2022-11-15T14:27:03.825Z,4
2022-11-15T14:28:03.825Z,4
2022-11-15T14:29:03.832Z,3
2022-11-15T14:30:03.832Z,4
2022-11-15T14:31:03.893Z,3
2022-11-15T14:32:03.837Z,5
2022-11-15T14:33:03.830Z,4
2022-11-15T14:34:03.831Z,4
2022-11-15T14:35:03.843Z,5
2022-11-15T14:36:03.832Z,2
2022-11-15T14:37:03.823Z,4
2022-11-15T14:38:03.880Z,4
2022-11-15T14:39:03.830Z,3
2022-11-15T14:40:03.855Z,2
2022-11-15T14:41:03.841Z,6
2022-11-15T14:42:03.839Z,5
2022-11-15T14:43:03.832Z,3
2022-11-15T14:44:03.849Z,7
2022-11-15T14:45:03.837Z,5
2022-11-15T14:46:03.832Z,4
2022-11-15T14:47:03.931Z,3
2022-11-15T14:48:03.837Z,4
2022-11-15T14:49:03.831Z,4
2022-11-15T14:50:03.980Z,5
2022-11-15T14:51:03.875Z,4
2022-11-15T14:52:03.837Z,3
2022-11-15T14:53:03.845Z,4
2022-11-15T14:54:03.835Z,7
2022-11-15T14:55:03.837Z,3
2022-11-15T14:56:03.839Z,5
2022-11-15T14:57:03.839Z,5
2022-11-15T14:58:03.842Z,5
2022-11-15T14:59:03.876Z,4
2022-11-15T15:00:03.838Z,3
2022-11-15T15:01:03.839Z,4
2022-11-15T15:02:03.846Z,5
2022-11-15T15:03:03.850Z,6
2022-11-15T15:04:03.837Z,8
2022-11-15T15:05:03.849Z,4
2022-11-15T15:06:03.890Z,5
2022-11-15T15:07:03.966Z,3
2022-11-15T15:08:03.993Z,6
2022-11-15T15:09:03.838Z,4
2022-11-15T15:10:32.941Z,4
2022-11-15T15:11:03.844Z,5
2022-11-15T15:12:06.508Z,4
2022-11-15T15:13:03.868Z,4
2022-11-15T15:14:03.847Z,3
2022-11-15T15:15:03.842Z,6
2022-11-15T15:16:03.855Z,4
2022-11-15T15:17:03.853Z,5
2022-11-15T15:18:03.849Z,6
2022-11-15T15:19:03.839Z,5
2022-11-15T15:20:03.988Z,4
2022-11-15T15:21:03.861Z,5
2022-11-15T15:22:03.879Z,6
2022-11-15T15:23:03.848Z,5
2022-11-15T15:24:03.846Z,5
2022-11-15T15:25:03.857Z,5
2022-11-15T15:26:03.859Z,3
2022-11-15T15:27:03.915Z,4
2022-11-15T15:28:03.886Z,6
2022-11-15T15:29:03.851Z,4
2022-11-15T15:30:03.899Z,4
2022-11-15T15:31:03.853Z,5
2022-11-15T15:32:03.857Z,4
2022-11-15T15:33:03.845Z,5
2022-11-15T15:34:03.889Z,6
2022-11-15T15:35:03.850Z,8
2022-11-15T15:36:03.857Z,8
2022-11-15T15:37:03.851Z,5
2022-11-15T15:38:03.866Z,4
2022-11-15T15:39:03.853Z,4
2022-11-15T15:40:03.861Z,4
2022-11-15T15:41:03.934Z,4
2022-11-15T15:42:03.852Z,6
2022-11-15T15:43:03.866Z,7
2022-11-15T15:44:03.864Z,5
2022-11-15T15:45:03.855Z,5
2022-11-15T15:46:03.854Z,5
2022-11-15T15:47:03.861Z,4
2022-11-15T15:48:03.877Z,5
2022-11-15T15:49:03.892Z,5
2022-11-15T15:50:03.869Z,4
2022-11-15T15:51:09.190Z,5
2022-11-15T15:52:03.869Z,4
2022-11-15T15:53:03.886Z,4
2022-11-15T15:54:03.857Z,5
2022-11-15T15:55:03.869Z,7
2022-11-15T15:56:03.856Z,5
2022-11-15T15:57:03.862Z,4
2022-11-15T15:58:03.862Z,4
2022-11-15T15:59:03.862Z,4
2022-11-15T16:00:03.911Z,5
2022-11-15T16:01:03.948Z,5
2022-11-15T16:02:03.874Z,4
2022-11-15T16:03:03.868Z,4
2022-11-15T16:04:03.862Z,4
2022-11-15T16:05:03.866Z,6
2022-11-15T16:06:03.862Z,6
2022-11-15T16:07:03.982Z,3
2022-11-15T16:08:03.886Z,4
2022-11-15T16:09:17.100Z,4
2022-11-15T16:11:03.870Z,4
2022-11-15T16:12:03.870Z,3
2022-11-15T16:13:03.868Z,4
2022-11-15T16:14:03.913Z,6
2022-11-15T16:15:03.867Z,5
2022-11-15T16:16:03.868Z,5
2022-11-15T16:17:03.881Z,7
2022-11-15T16:18:03.896Z,4
2022-11-15T16:19:03.880Z,4
2022-11-15T16:20:03.882Z,5
2022-11-15T16:21:03.893Z,4
2022-11-15T16:22:03.873Z,5
2022-11-15T16:23:08.718Z,5
2022-11-15T16:24:03.897Z,5
2022-11-15T16:25:03.877Z,5
2022-11-15T16:26:03.874Z,4
2022-11-15T16:27:03.876Z,3
2022-11-15T16:28:03.956Z,5
2022-11-15T16:29:03.879Z,6
2022-11-15T16:30:03.874Z,4
2022-11-15T16:31:03.900Z,5
2022-11-15T16:32:03.877Z,5
2022-11-15T16:33:03.877Z,4
2022-11-15T16:34:03.895Z,5
2022-11-15T16:35:03.930Z,4
2022-11-15T16:36:03.878Z,4
2022-11-15T16:37:03.967Z,4
2022-11-15T16:38:03.876Z,6
2022-11-15T16:39:03.888Z,6
2022-11-15T16:40:03.880Z,6
2022-11-15T16:41:03.890Z,4
2022-11-15T16:42:03.930Z,4
2022-11-15T16:43:03.894Z,4
2022-11-15T16:44:03.884Z,4
2022-11-15T16:45:03.882Z,6
2022-11-15T16:46:03.886Z,4
2022-11-15T16:47:03.883Z,4
2022-11-15T16:48:03.885Z,4
2022-11-15T16:49:03.886Z,5
2022-11-15T16:50:03.909Z,6
2022-11-15T16:51:03.889Z,4
2022-11-15T16:52:03.882Z,6
2022-11-15T16:53:03.914Z,4
2022-11-15T16:54:03.889Z,5
2022-11-15T16:55:03.914Z,5
2022-11-15T16:56:03.885Z,4
2022-11-15T16:57:03.896Z,5
2022-11-15T16:58:03.895Z,5
2022-11-15T16:59:03.890Z,6
2022-11-15T17:00:03.884Z,4
2022-11-15T17:01:04.043Z,5
2022-11-15T17:02:03.993Z,5
2022-11-15T17:03:03.887Z,4
2022-11-15T17:04:03.895Z,6
2022-11-15T17:05:09.821Z,4
2022-11-15T17:06:03.898Z,3
2022-11-15T17:07:04.015Z,5
2022-11-15T17:08:03.911Z,8
2022-11-15T17:09:03.886Z,4
2022-11-15T17:10:03.900Z,6
2022-11-15T17:11:03.893Z,7
2022-11-15T17:12:03.899Z,5
2022-11-15T17:13:03.888Z,3
2022-11-15T17:14:03.898Z,4
2022-11-15T17:15:03.974Z,5
2022-11-15T17:16:03.905Z,4
2022-11-15T17:17:03.896Z,7
2022-11-15T17:18:03.912Z,5
2022-11-15T17:19:03.896Z,4
2022-11-15T17:20:03.898Z,5
2022-11-15T17:21:03.912Z,4
2022-11-15T17:22:03.923Z,4
2022-11-15T17:23:03.893Z,5
2022-11-15T17:24:03.912Z,4
2022-11-15T17:25:03.916Z,4
2022-11-15T17:26:23.742Z,4
2022-11-15T17:27:03.904Z,4
2022-11-15T17:28:03.902Z,4
2022-11-15T17:29:03.970Z,6
2022-11-15T17:30:03.919Z,4
2022-11-15T17:31:03.911Z,4
2022-11-15T17:32:03.907Z,4
2022-11-15T17:33:03.905Z,3
2022-11-15T17:34:03.900Z,4
2022-11-15T17:35:04.706Z,3
2022-11-15T17:36:03.901Z,6
2022-11-15T17:37:03.900Z,5
2022-11-15T17:38:03.915Z,3
2022-11-15T17:39:03.910Z,4
2022-11-15T17:40:03.908Z,3
2022-11-15T17:41:03.897Z,5
2022-11-15T17:42:04.016Z,3
2022-11-15T17:43:03.906Z,4
2022-11-15T17:44:03.968Z,5
2022-11-15T17:45:09.388Z,3
2022-11-15T17:46:04.133Z,4
2022-11-15T17:47:03.903Z,4
2022-11-15T17:48:03.901Z,4
2022-11-15T17:49:03.909Z,4
2022-11-15T17:50:03.909Z,5
2022-11-15T17:51:03.918Z,4
2022-11-15T17:52:03.909Z,4
2022-11-15T17:53:03.907Z,4
2022-11-15T17:54:03.912Z,3
2022-11-15T17:55:03.972Z,6
2022-11-15T17:56:03.906Z,9
2022-11-15T17:57:03.938Z,5
2022-11-15T17:58:04.191Z,4
2022-11-15T17:59:07.773Z,5
2022-11-15T18:00:03.921Z,6
2022-11-15T18:01:03.959Z,4
2022-11-15T18:02:03.947Z,3
2022-11-15T18:03:03.903Z,5
2022-11-15T18:04:03.910Z,4
2022-11-15T18:05:03.916Z,4
2022-11-15T18:06:03.917Z,5
2022-11-15T18:07:03.989Z,4
2022-11-15T18:08:03.914Z,6
2022-11-15T18:09:03.913Z,6
2022-11-15T18:10:03.920Z,5
2022-11-15T18:11:03.911Z,3
2022-11-15T18:12:03.911Z,3
2022-11-15T18:13:03.906Z,5
2022-11-15T18:14:03.912Z,5
2022-11-15T18:15:03.921Z,6
2022-11-15T18:16:03.925Z,5
2022-11-15T18:17:03.917Z,4
2022-11-15T18:18:03.911Z,3
2022-11-15T18:19:03.924Z,4
2022-11-15T18:20:03.917Z,5
2022-11-15T18:21:03.917Z,4
2022-11-15T18:22:03.922Z,4
2022-11-15T18:23:03.922Z,4
2022-11-15T18:24:03.940Z,6
2022-11-15T18:25:03.925Z,6
2022-11-15T18:26:03.917Z,4
2022-11-15T18:27:03.926Z,5
2022-11-15T18:28:03.950Z,7
2022-11-15T18:29:03.922Z,5
2022-11-15T18:30:03.924Z,5
2022-11-15T18:31:03.923Z,4
2022-11-15T18:32:03.953Z,7
2022-11-15T18:33:03.926Z,4
2022-11-15T18:34:03.928Z,4
2022-11-15T18:35:03.931Z,5
2022-11-15T18:36:03.924Z,4
2022-11-15T18:37:03.920Z,4
2022-11-15T18:38:03.931Z,4
2022-11-15T18:39:03.923Z,4
2022-11-15T18:40:03.920Z,6
2022-11-15T18:41:03.926Z,5
2022-11-15T18:42:03.943Z,5
2022-11-15T18:43:03.936Z,6
2022-11-15T18:44:03.934Z,4
2022-11-15T18:45:03.932Z,4
2022-11-15T18:46:03.956Z,4
2022-11-15T18:48:03.934Z,3
2022-11-15T18:49:03.934Z,4
2022-11-15T18:50:03.966Z,4
2022-11-15T18:51:05.484Z,4
2022-11-15T18:52:03.936Z,4
2022-11-15T18:53:03.932Z,4
2022-11-15T18:54:03.935Z,3
2022-11-15T18:55:03.932Z,3
2022-11-15T18:56:03.957Z,4
2022-11-15T18:57:03.931Z,3
2022-11-15T18:58:03.932Z,3
2022-11-15T18:59:03.954Z,5
2022-11-15T19:00:03.934Z,5
2022-11-15T19:01:04.037Z,4
2022-11-15T19:02:03.940Z,5
2022-11-15T19:03:03.980Z,4
2022-11-15T19:04:03.931Z,4
2022-11-15T19:05:03.952Z,4
2022-11-15T19:06:03.958Z,4
2022-11-15T19:07:03.985Z,4
2022-11-15T19:08:03.953Z,5
2022-11-15T19:09:03.946Z,4
2022-11-15T19:10:03.940Z,4
2022-11-15T19:11:03.943Z,4
2022-11-15T19:12:03.955Z,4
2022-11-15T19:13:03.935Z,4
2022-11-15T19:14:03.948Z,4
2022-11-15T19:15:09.848Z,4
2022-11-15T19:16:03.946Z,4
2022-11-15T19:17:03.950Z,4
2022-11-15T19:18:03.939Z,3
2022-11-15T19:19:03.946Z,4
2022-11-15T19:20:03.955Z,4
2022-11-15T19:21:03.951Z,4
2022-11-15T19:22:03.975Z,6
2022-11-15T19:23:03.944Z,5
2022-11-15T19:24:03.950Z,5
2022-11-15T19:25:03.946Z,8
2022-11-15T19:26:03.950Z,3
2022-11-15T19:27:03.957Z,4
2022-11-15T19:28:03.943Z,5
2022-11-15T19:29:03.979Z,5
2022-11-15T19:30:03.976Z,6
2022-11-15T19:31:03.951Z,4
2022-11-15T19:32:03.952Z,4
2022-11-15T19:33:03.951Z,4
2022-11-15T19:34:03.954Z,4
2022-11-15T19:35:03.958Z,4
2022-11-15T19:36:04.049Z,4
2022-11-15T19:37:03.955Z,4
2022-11-15T19:38:03.955Z,4
2022-11-15T19:39:03.953Z,4
2022-11-15T19:40:03.966Z,5
2022-11-15T19:41:03.954Z,4
2022-11-15T19:42:03.947Z,4
2022-11-15T19:43:04.001Z,5
2022-11-15T19:44:03.966Z,4
2022-11-15T19:45:03.956Z,5
2022-11-15T19:46:03.956Z,4
2022-11-15T19:47:03.956Z,5
2022-11-15T19:48:04.048Z,4
2022-11-15T19:49:03.958Z,6
2022-11-15T19:50:03.957Z,6
2022-11-15T19:51:03.966Z,4
2022-11-15T19:52:03.950Z,5
2022-11-15T19:53:03.958Z,4
2022-11-15T19:54:03.960Z,4
2022-11-15T19:55:03.960Z,5
2022-11-15T19:56:03.958Z,4
2022-11-15T19:57:03.954Z,5
2022-11-15T19:58:03.966Z,5
2022-11-15T19:59:03.960Z,4
2022-11-15T20:00:07.245Z,5
2022-11-15T20:01:04.075Z,4
2022-11-15T20:02:03.957Z,4
2022-11-15T20:03:03.998Z,5